Time,TemperatureF,DewpointF,PressureIn,WindDirection,WindDirectionDegrees,WindSpeedMPH,WindSpeedGustMPH,Humidity,HourlyPrecipIn,Conditions,Clouds,dailyrainin,SoftwareType,DateUTC
2013-07-03 00:11:00,70.0,66.0,-100.00,North,10,1.0,2.0,85,0.00,,,-99.99,,2013-07-03 04:11:00,
2013-07-03 00:22:00,70.0,65.0,-100.00,North,0,1.0,2.0,86,0.00,,,-99.99,,2013-07-03 04:22:00,
2013-07-03 00:34:00,70.0,66.0,-100.00,WNW,290,1.0,1.0,86,0.00,,,-99.99,,2013-07-03 04:34:00,
2013-07-03 00:43:00,69.0,65.0,-100.00,WSW,240,1.0,1.0,86,0.00,,,-99.99,,2013-07-03 04:43:00,
2013-07-03 01:23:00,68.0,65.0,-100.00,West,275,1.0,2.0,87,0.00,,,-99.99,,2013-07-03 05:23:00,
2013-07-03 01:38:00,68.0,64.0,-100.00,West,275,1.0,3.0,87,0.00,,,-99.99,,2013-07-03 05:38:00,
2013-07-03 02:14:00,67.0,64.0,-100.00,NNE,20,1.0,2.0,88,0.00,,,-99.99,,2013-07-03 06:14:00,
2013-07-03 02:39:00,67.0,64.0,-100.00,NE,50,2.0,3.0,89,0.00,,,-99.99,,2013-07-03 06:39:00,
2013-07-03 02:49:00,66.0,63.0,-100.00,NNE,30,1.0,2.0,89,0.00,,,-99.99,,2013-07-03 06:49:00,
2013-07-03 02:54:00,66.0,63.0,-100.00,NE,50,2.0,3.0,90,0.00,,,-99.99,,2013-07-03 06:54:00,
2013-07-03 03:27:00,67.0,64.0,-100.00,North,5,0.0,0.0,90,0.00,,,-99.99,,2013-07-03 07:27:00,
2013-07-03 03:47:00,67.0,64.0,-100.00,WSW,240,0.0,2.0,89,0.00,,,-99.99,,2013-07-03 07:47:00,
2013-07-03 04:09:00,66.0,63.0,-100.00,SSW,195,0.0,0.0,89,0.00,,,-99.99,,2013-07-03 08:09:00,
2013-07-03 04:16:00,66.0,63.0,-100.00,East,100,0.0,2.0,89,0.00,,,-99.99,,2013-07-03 08:16:00,
2013-07-03 04:37:00,66.0,63.0,-100.00,SSW,210,0.0,1.0,89,0.00,,,-99.99,,2013-07-03 08:37:00,
2013-07-03 04:45:00,66.0,63.0,-100.00,South,170,0.0,2.0,89,0.00,,,-99.99,,2013-07-03 08:45:00,
2013-07-03 05:06:00,67.0,63.0,-100.00,SW,225,0.0,2.0,89,0.00,,,-99.99,,2013-07-03 09:06:00,
2013-07-03 05:16:00,67.0,64.0,-100.00,WSW,240,0.0,2.0,89,0.00,,,-99.99,,2013-07-03 09:16:00,
2013-07-03 05:47:00,67.0,64.0,-100.00,North,355,1.0,2.0,88,0.00,,,-99.99,,2013-07-03 09:47:00,
2013-07-03 06:16:00,68.0,64.0,-100.00,ENE,60,1.0,2.0,88,0.00,,,-99.99,,2013-07-03 10:16:00,
2013-07-03 06:28:00,68.0,64.0,-100.00,NNE,15,0.0,3.0,88,0.00,,,-99.99,,2013-07-03 10:28:00,
2013-07-03 06:36:00,68.0,64.0,-100.00,SSE,165,1.0,4.0,88,0.00,,,-99.99,,2013-07-03 10:36:00,
2013-07-03 06:45:00,68.0,65.0,-100.00,NNW,335,0.0,3.0,88,0.00,,,-99.99,,2013-07-03 10:45:00,
2013-07-03 07:06:00,69.0,65.0,-100.00,WSW,255,1.0,4.0,87,0.00,,,-99.99,,2013-07-03 11:06:00,
2013-07-03 07:16:00,69.0,65.0,-100.00,SSE,155,1.0,3.0,86,0.00,,,-99.99,,2013-07-03 11:16:00,
2013-07-03 07:25:00,70.0,65.0,-100.00,South,170,1.0,4.0,86,0.00,,,-99.99,,2013-07-03 11:25:00,
2013-07-03 07:38:00,70.0,65.0,-100.00,SE,130,2.0,3.0,85,0.00,,,-99.99,,2013-07-03 11:38:00,
2013-07-03 07:43:00,70.0,65.0,-100.00,South,170,4.0,7.0,84,0.00,,,-99.99,,2013-07-03 11:43:00,
2013-07-03 08:08:00,71.0,66.0,-100.00,SSE,165,3.0,6.0,84,0.00,,,-99.99,,2013-07-03 12:08:00,
2013-07-03 09:17:00,76.0,67.0,-100.00,South,185,4.0,7.0,72,0.00,,,-99.99,,2013-07-03 13:17:00,
2013-07-03 09:25:00,77.0,67.0,-100.00,SSE,165,6.0,8.0,71,0.00,,,-99.99,,2013-07-03 13:25:00,
2013-07-03 09:36:00,78.0,66.0,-100.00,SSW,200,4.0,10.0,68,0.00,,,-99.99,,2013-07-03 13:36:00,
2013-07-03 09:47:00,77.0,67.0,-100.00,SSW,195,7.0,13.0,70,0.00,,,-99.99,,2013-07-03 13:47:00,
2013-07-03 10:06:00,78.0,67.0,-100.00,SSE,160,7.0,11.0,68,0.00,,,-99.99,,2013-07-03 14:06:00,
2013-07-03 10:15:00,78.0,67.0,-100.00,South,185,6.0,10.0,68,0.00,,,-99.99,,2013-07-03 14:15:00,
2013-07-03 10:26:00,79.0,67.0,-100.00,SW,215,4.0,9.0,66,0.00,,,-99.99,,2013-07-03 14:26:00,
2013-07-03 10:38:00,79.0,67.0,-100.00,SSE,165,6.0,10.0,67,0.00,,,-99.99,,2013-07-03 14:38:00,
2013-07-03 10:46:00,80.0,67.0,-100.00,SE,140,2.0,8.0,66,0.00,,,-99.99,,2013-07-03 14:46:00,
2013-07-03 10:54:00,79.0,67.0,-100.00,SE,135,6.0,10.0,68,0.00,,,-99.99,,2013-07-03 14:54:00,
2013-07-03 11:05:00,79.0,67.0,-100.00,South,180,6.0,9.0,67,0.00,,,-99.99,,2013-07-03 15:05:00,
2013-07-03 11:47:00,82.0,68.0,-100.00,SE,145,6.0,9.0,62,0.00,,,-99.99,,2013-07-03 15:47:00,
2013-07-03 12:07:00,82.0,67.0,-100.00,SE,140,6.0,11.0,60,0.00,,,-99.99,,2013-07-03 16:07:00,
2013-07-03 12:46:00,82.0,64.0,-100.00,South,170,9.0,16.0,54,0.00,,,-99.99,,2013-07-03 16:46:00,
2013-07-03 13:07:00,82.0,64.0,-100.00,SSE,165,10.0,16.0,55,0.00,,,-99.99,,2013-07-03 17:07:00,
2013-07-03 14:07:00,85.0,64.0,-100.00,SSW,200,9.0,13.0,49,0.00,,,-99.99,,2013-07-03 18:07:00,
2013-07-03 14:45:00,84.0,65.0,-100.00,SSE,155,9.0,15.0,52,0.00,,,-99.99,,2013-07-03 18:45:00,
2013-07-03 15:04:00,85.0,63.0,-100.00,South,190,7.0,15.0,47,0.00,,,-99.99,,2013-07-03 19:04:00,
2013-07-03 15:46:00,86.0,65.0,-100.00,SSE,150,9.0,15.0,50,0.00,,,-99.99,,2013-07-03 19:46:00,
2013-07-03 16:04:00,85.0,64.0,-100.00,SSW,205,12.0,16.0,48,0.00,,,-99.99,,2013-07-03 20:04:00,
2013-07-03 16:37:00,87.0,64.0,-100.00,SSW,200,7.0,18.0,47,0.00,,,-99.99,,2013-07-03 20:37:00,
2013-07-03 17:06:00,85.0,63.0,-100.00,SSE,165,8.0,15.0,48,0.00,,,-99.99,,2013-07-03 21:06:00,
2013-07-03 17:44:00,85.0,65.0,-100.00,SSE,165,9.0,13.0,50,0.00,,,-99.99,,2013-07-03 21:44:00,
2013-07-03 18:06:00,85.0,65.0,-100.00,SSE,150,6.0,11.0,52,0.00,,,-99.99,,2013-07-03 22:06:00,
2013-07-03 18:45:00,82.0,66.0,-100.00,South,180,6.0,12.0,58,0.00,,,-99.99,,2013-07-03 22:45:00,
2013-07-03 19:24:00,81.0,66.0,-100.00,South,185,4.0,9.0,59,0.00,,,-99.99,,2013-07-03 23:24:00,
2013-07-03 19:39:00,80.0,67.0,-100.00,South,190,7.0,11.0,63,0.00,,,-99.99,,2013-07-03 23:39:00,
2013-07-03 19:45:00,78.0,68.0,-100.00,SW,225,6.0,11.0,72,0.00,,,-99.99,,2013-07-03 23:45:00,
2013-07-03 19:54:00,76.0,67.0,-100.00,SW,235,9.0,15.0,73,0.00,,,-99.99,,2013-07-03 23:54:00,
2013-07-03 20:25:00,73.0,68.0,-100.00,SSE,165,1.0,6.0,83,0.00,,,-99.99,,2013-07-04 00:25:00,
2013-07-03 20:37:00,73.0,68.0,-100.00,SSE,150,4.0,5.0,85,0.00,,,-99.99,,2013-07-04 00:37:00,
2013-07-03 20:48:00,73.0,68.0,-100.00,SSE,165,4.0,6.0,85,0.00,,,-99.99,,2013-07-04 00:48:00,
2013-07-03 20:56:00,72.0,68.0,-100.00,SSE,155,7.0,11.0,86,0.00,,,-99.99,,2013-07-04 00:56:00,
2013-07-03 21:04:00,72.0,68.0,-100.00,SSE,165,6.0,12.0,86,0.00,,,-99.99,,2013-07-04 01:04:00,
2013-07-03 21:23:00,73.0,68.0,-100.00,South,175,5.0,7.0,85,0.00,,,-99.99,,2013-07-04 01:23:00,
2013-07-03 22:14:00,73.0,68.0,-100.00,SSE,160,5.0,9.0,86,0.00,,,-99.99,,2013-07-04 02:14:00,
2013-07-03 22:24:00,72.0,68.0,-100.00,SSE,150,6.0,9.0,85,0.00,,,-99.99,,2013-07-04 02:24:00,
2013-07-03 22:39:00,72.0,68.0,-100.00,SE,145,7.0,12.0,86,0.00,,,-99.99,,2013-07-04 02:39:00,
2013-07-03 22:48:00,71.0,66.0,-100.00,SSE,155,6.0,11.0,84,0.00,,,-99.99,,2013-07-04 02:48:00,
2013-07-03 23:05:00,71.0,66.0,-100.00,SSE,150,4.0,9.0,84,0.00,,,-99.99,,2013-07-04 03:05:00,
2013-07-03 23:46:00,70.0,65.0,-100.00,SSE,155,4.0,7.0,84,0.00,,,-99.99,,2013-07-04 03:46:00,